Flight Track Log - Related Links

Times and Time Zones

All times are in EDT time to prevent confusion due to time zone crossing. See the GTX256 flight status page for this flight to view local times or setup timezone preferences in your user account.

Time Position Orientation Groundspeed Altitude Reporting Facility
EDT Latitude Longitude Course Direction KTS MPH feet Rate Location/Type
Thu 08:41:12 PM 29.5369 -98.4575 350° North 96 110 1,200  Level Houston Center
Thu 08:42:30 PM 29.5733 -98.4650 350° North 115 132 2,200 750 Climbing Houston Center
Thu 08:43:04 PM 29.5892 -98.4711 341° North 111 128 2,600 787 Climbing Houston Center
Thu 08:43:31 PM 29.6017 -98.4783 333° Northwest 116 133 3,000 774 Climbing Houston Center
Thu 08:44:06 PM 29.6192 -98.4839 345° North 112 129 3,400 778 Climbing Houston Center
Thu 08:44:25 PM 29.6289 -98.4775 30° Northeast 116 133 3,700 885 Climbing Houston Center
Thu 08:45:07 PM 29.6494 -98.4642 29° Northeast 114 131 4,300 764 Climbing Houston Center
Thu 08:45:20 PM 29.6528 -98.4628 20° North 111 128 4,400 649 Climbing Houston Center
Thu 08:46:21 PM 29.6825 -98.4422 31° Northeast 120 138 5,100 738 Climbing Houston Center
Thu 08:47:22 PM 29.7142 -98.4217 29° Northeast 125 144 5,900 696 Climbing Houston Center
Thu 08:48:13 PM 29.7392 -98.4058 29° Northeast 121 139 6,400 667 Climbing Houston Center
Thu 08:48:34 PM 29.7478 -98.4006 28° Northeast 122 140 6,700 686 Climbing Houston Center
Thu 08:49:23 PM 29.7739 -98.3856 27° Northeast 123 142 7,200 588 Climbing Houston Center
Thu 08:50:16 PM 29.7997 -98.3678 31° Northeast 121 139 7,700 448 Climbing Houston Center
Thu 08:50:30 PM 29.8075 -98.3644 20° North 127 146 7,700  Level Houston Center
Thu 08:51:49 PM 29.8611 -98.3292 30° Northeast 169 194 7,700  Level Houston Center
Thu 08:52:20 PM 29.8800 -98.3158 31° Northeast 163 188 7,700  Level Houston Center
Thu 08:53:32 PM 29.9303 -98.2844 28° Northeast 170 196 7,700  Level Houston Center
Thu 08:54:23 PM 29.9622 -98.2567 37° Northeast 167 192 7,700  Level Houston Center
Thu 08:55:25 PM 30.0067 -98.2372 21° North 168 193 7,700  Level Houston Center
Thu 08:56:26 PM 30.0556 -98.2253 12° North 167 192 7,700  Level Houston Center
Thu 08:57:28 PM 30.0992 -98.2058 21° North 167 192 7,700  Level Houston Center
Thu 08:58:30 PM 30.1400 -98.1803 28° Northeast 167 192 7,700  Level Houston Center
Thu 08:59:32 PM 30.1811 -98.1481 34° Northeast 167 192 7,700  Level Houston Center
Thu 09:01:35 PM 30.2619 -98.0878 21° North 167 192 7,700  Level Houston Center
Thu 09:02:37 PM 30.3017 -98.0592 32° Northeast 167 192 7,700  Level Houston Center
Thu 09:03:38 PM 30.3353 -98.0350 32° Northeast 167 192 7,700  Level Houston Center
Thu 09:05:43 PM 30.4217 -97.9706 33° Northeast 168 193 7,700  Level Houston Center
Thu 09:06:43 PM 30.4625 -97.9417 31° Northeast 168 193 7,700  Level Houston Center
Thu 09:07:45 PM 30.5039 -97.9147 29° Northeast 168 193 7,700  Level Houston Center
Thu 09:08:46 PM 30.5442 -97.8875 30° Northeast 168 193 7,700  Level Houston Center
Thu 09:09:48 PM 30.5844 -97.8611 29° Northeast 168 193 7,700  Level Houston Center
Thu 09:10:50 PM 30.6250 -97.8322 32° Northeast 168 193 7,700  Level Houston Center
Thu 09:12:53 PM 30.7147 -97.7703 31° Northeast 169 194 7,700  Level Houston Center
Thu 09:13:55 PM 30.7553 -97.7425 30° Northeast 169 194 7,700  Level Houston Center
Thu 09:14:56 PM 30.7956 -97.7122 33° Northeast 169 194 7,700  Level Houston Center
Thu 09:15:58 PM 30.8353 -97.6833 32° Northeast 169 194 7,700  Level Houston Center
Thu 09:17:00 PM 30.8753 -97.6539 32° Northeast 169 194 7,700  Level Houston Center
Thu 09:17:44 PM 30.9056 -97.6297 34° Northeast 169 194 7,700  Level Fort Worth Center
Thu 09:18:07 PM 30.9228 -97.6189 28° Northeast 169 194 7,700  Level Fort Worth Center
Thu 09:18:45 PM 30.9483 -97.6006 32° Northeast 173 199 7,700  Level Fort Worth Center
Thu 09:19:09 PM 30.9639 -97.5908 28° Northeast 169 194 7,700  Level Fort Worth Center
Thu 09:19:46 PM 30.9931 -97.5711 30° Northeast 172 198 7,700  Level Fort Worth Center
Thu 09:20:11 PM 31.0053 -97.5619 33° Northeast 169 194 7,700  Level Fort Worth Center
Thu 09:20:46 PM 31.0319 -97.5425 32° Northeast 171 197 7,700  Level Fort Worth Center
Thu 09:21:13 PM 31.0458 -97.5311 35° Northeast 170 196 7,700  Level Fort Worth Center
Thu 09:21:47 PM 31.0744 -97.5111 31° Northeast 174 200 7,700 -290 Level Fort Worth Center
Thu 09:22:15 PM 31.0892 -97.5050 20° North 170 196 7,400 -1,000 Descending Fort Worth Center
Thu 09:22:47 PM 31.1228 -97.4931 17° North 199 229 6,700 -968 Descending Fort Worth Center
Thu 09:23:17 PM 31.1422 -97.4853 19° North 185 213 6,400 -984 Descending Fort Worth Center
Thu 09:23:48 PM 31.1792 -97.4714 18° North 203 234 5,700 -1,258 Descending Fort Worth Center
Thu 09:24:19 PM 31.2067 -97.4603 19° North 197 227 5,100 -1,082 Descending Fort Worth Center
Thu 09:24:49 PM 31.2356 -97.4497 17° North 204 235 4,600 -952 Descending Fort Worth Center
Thu 09:25:22 PM 31.2614 -97.4397 18° North 200 230 4,100 -695 Descending Fort Worth Center
Thu 09:26:24 PM 31.3131 -97.4197 18° North 200 230 3,500 -300 Descending Fort Worth Center
Thu 09:27:22 PM 31.3608 -97.4036 16° North 184 212 3,500  Level Fort Worth Center
Thu 09:28:28 PM 31.4144 -97.3903 12° North 190 219 3,500  Level Fort Worth Center
Thu 09:29:30 PM 31.4633 -97.3739 16° North 187 215 3,500  Level Fort Worth Center
Thu 09:30:32 PM 31.5217 -97.3503 19° North 187 215 3,500  Level Fort Worth Center
Thu 09:31:34 PM 31.5708 -97.3333 16° North 187 215 3,500  Level Fort Worth Center
Thu 09:31:47 PM 31.5767 -97.3339 355° North 186 214 3,500  Level Fort Worth Center
Thu 09:32:37 PM 31.6203 -97.3156 20° North 187 215 3,500  Level Fort Worth Center
Thu 09:33:39 PM 31.6692 -97.2981 17° North 186 214 3,500  Level Fort Worth Center
Thu 09:34:41 PM 31.7186 -97.2803 17° North 187 215 3,500  Level Fort Worth Center
Thu 09:35:43 PM 31.7678 -97.2628 17° North 186 214 3,500  Level Fort Worth Center
Thu 09:36:11 PM 31.7944 -97.2436 31° Northeast 173 199 3,500  Level Fort Worth Center
Thu 09:36:45 PM 31.8161 -97.2236 38° Northeast 176 203 3,500  Level Fort Worth Center
Thu 09:37:47 PM 31.8614 -97.1953 28° Northeast 180 207 3,500  Level Fort Worth Center
Thu 09:38:49 PM 31.9114 -97.1769 17° North 185 213 3,500  Level Fort Worth Center
Thu 09:39:48 PM 31.9664 -97.1597 15° North 180 207 3,500  Level Fort Worth Center
Thu 09:40:53 PM 32.0167 -97.1400 18° North 187 215 3,500  Level Fort Worth Center
Thu 09:41:55 PM 32.0658 -97.1231 16° North 186 214 3,500  Level Fort Worth Center
Thu 09:42:57 PM 32.1161 -97.1044 17° North 187 215 3,500  Level Fort Worth Center
Thu 09:43:59 PM 32.1672 -97.0881 15° North 188 216 3,500  Level Fort Worth Center
Thu 09:45:01 PM 32.2178 -97.0711 16° North 188 216 3,500 -48 Level Fort Worth Center
Thu 09:46:03 PM 32.2806 -97.0514 15° North 189 217 3,400 -48 Descending Fort Worth Center
Thu 09:47:05 PM 32.3325 -97.0339 16° North 194 223 3,400  Level Fort Worth Center
Thu 09:48:07 PM 32.3878 -97.0150 16° North 193 222 3,400  Level Fort Worth Center
Thu 09:49:09 PM 32.4394 -96.9981 15° North 193 222 3,400 48 Level Fort Worth Center
Thu 09:50:11 PM 32.4903 -96.9806 16° North 189 217 3,500 49 Climbing Fort Worth Center
Thu 09:51:12 PM 32.5461 -96.9658 13° North 194 223 3,500  Level Fort Worth Center
Thu 09:52:14 PM 32.5975 -96.9497 15° North 193 222 3,500  Level Fort Worth Center
Thu 09:53:16 PM 32.6533 -96.9325 15° North 193 222 3,500 -242 Level Fort Worth Center
Thu 09:54:18 PM 32.7067 -96.9125 18° North 196 226 3,000 -484 Descending Fort Worth Center
Thu 09:55:20 PM 32.7653 -96.8919 16° North 205 236 2,500 -242 Descending Fort Worth Center
Thu 09:56:22 PM 32.8153 -96.8797 12° North 189 217 2,500  Level Fort Worth Center
Thu 09:57:24 PM 32.8644 -96.8658 13° North 182 209 2,500 -97 Level Fort Worth Center
Thu 09:58:26 PM 32.9111 -96.8525 13° North 176 203 2,300 -387 Descending Fort Worth Center
Thu 09:59:28 PM 32.9633 -96.8575 355° North 177 204 1,700 -488 Descending Fort Worth Center
Thu 10:00:29 PM 32.9903 -96.8503 13° North 125 144 1,300 -341 Descending Fort Worth Center
Thu 10:01:31 PM 32.9758 -96.8367 142° Southeast 103 119 1,000 -290 Descending Fort Worth Center
Thu 10:03:00 PM 32.9667 -96.8333 16° North  Level FlightAware Approximate
Thu 10:10:00 PM 32.9686 -96.8364 16° North  Level Estimated

Login

Don't have an account? Register now (free) for customized features, flight alerts, and more!